sensor_id;sensor_type;location;lat;lon;timestamp;P1;durP1;ratioP1;P2;durP2;ratioP2
21769;SDS011;11046;49.558;8.674;2022-12-18T00:00:26;89.83;;;27.47;;
21769;SDS011;11046;49.558;8.674;2022-12-18T00:03:27;77.67;;;25.10;;
21769;SDS011;11046;49.558;8.674;2022-12-18T00:06:28;92.20;;;27.60;;
21769;SDS011;11046;49.558;8.674;2022-12-18T00:09:29;94.10;;;27.77;;
21769;SDS011;11046;49.558;8.674;2022-12-18T00:12:30;92.57;;;27.17;;
21769;SDS011;11046;49.558;8.674;2022-12-18T00:15:30;92.57;;;29.40;;
21769;SDS011;11046;49.558;8.674;2022-12-18T00:18:36;88.60;;;24.50;;
21769;SDS011;11046;49.558;8.674;2022-12-18T00:21:37;89.47;;;26.17;;
21769;SDS011;11046;49.558;8.674;2022-12-18T00:24:38;95.37;;;26.83;;
21769;SDS011;11046;49.558;8.674;2022-12-18T00:27:38;89.07;;;26.33;;
21769;SDS011;11046;49.558;8.674;2022-12-18T00:30:39;79.87;;;25.90;;
21769;SDS011;11046;49.558;8.674;2022-12-18T00:33:41;80.50;;;23.93;;
21769;SDS011;11046;49.558;8.674;2022-12-18T00:36:43;82.33;;;25.47;;
21769;SDS011;11046;49.558;8.674;2022-12-18T00:39:47;86.57;;;25.97;;
21769;SDS011;11046;49.558;8.674;2022-12-18T00:42:48;82.67;;;25.27;;
21769;SDS011;11046;49.558;8.674;2022-12-18T00:45:57;68.07;;;24.20;;
21769;SDS011;11046;49.558;8.674;2022-12-18T00:48:59;99.30;;;34.30;;
21769;SDS011;11046;49.558;8.674;2022-12-18T00:52:00;105.23;;;36.83;;
21769;SDS011;11046;49.558;8.674;2022-12-18T00:55:00;111.73;;;39.97;;
21769;SDS011;11046;49.558;8.674;2022-12-18T00:58:01;101.97;;;35.10;;
21769;SDS011;11046;49.558;8.674;2022-12-18T01:01:03;102.87;;;35.27;;
21769;SDS011;11046;49.558;8.674;2022-12-18T01:04:07;96.17;;;34.63;;
21769;SDS011;11046;49.558;8.674;2022-12-18T01:07:07;87.60;;;29.13;;
21769;SDS011;11046;49.558;8.674;2022-12-18T01:10:10;90.60;;;30.13;;
21769;SDS011;11046;49.558;8.674;2022-12-18T01:13:12;114.10;;;37.97;;
21769;SDS011;11046;49.558;8.674;2022-12-18T01:16:13;94.03;;;31.50;;
21769;SDS011;11046;49.558;8.674;2022-12-18T01:19:15;110.90;;;37.43;;
21769;SDS011;11046;49.558;8.674;2022-12-18T01:22:16;113.50;;;40.43;;
21769;SDS011;11046;49.558;8.674;2022-12-18T01:25:18;100.87;;;35.97;;
21769;SDS011;11046;49.558;8.674;2022-12-18T01:28:19;118.63;;;38.23;;
21769;SDS011;11046;49.558;8.674;2022-12-18T01:31:21;103.03;;;36.53;;
21769;SDS011;11046;49.558;8.674;2022-12-18T01:34:28;116.33;;;38.37;;
21769;SDS011;11046;49.558;8.674;2022-12-18T01:37:29;113.57;;;37.77;;
21769;SDS011;11046;49.558;8.674;2022-12-18T01:40:29;118.47;;;40.10;;
21769;SDS011;11046;49.558;8.674;2022-12-18T01:43:43;109.10;;;38.63;;
21769;SDS011;11046;49.558;8.674;2022-12-18T01:46:44;113.43;;;38.37;;
21769;SDS011;11046;49.558;8.674;2022-12-18T01:49:45;103.13;;;36.17;;
21769;SDS011;11046;49.558;8.674;2022-12-18T01:52:47;95.73;;;34.50;;
21769;SDS011;11046;49.558;8.674;2022-12-18T01:55:53;93.37;;;31.57;;
21769;SDS011;11046;49.558;8.674;2022-12-18T01:58:58;100.00;;;35.17;;
21769;SDS011;11046;49.558;8.674;2022-12-18T02:02:03;97.23;;;33.17;;
21769;SDS011;11046;49.558;8.674;2022-12-18T02:05:03;87.57;;;30.00;;
21769;SDS011;11046;49.558;8.674;2022-12-18T02:15:10;70.27;;;25.30;;
21769;SDS011;11046;49.558;8.674;2022-12-18T02:18:19;78.63;;;24.57;;
21769;SDS011;11046;49.558;8.674;2022-12-18T02:21:37;69.63;;;22.40;;
21769;SDS011;11046;49.558;8.674;2022-12-18T02:28:26;66.40;;;22.37;;
21769;SDS011;11046;49.558;8.674;2022-12-18T02:31:35;69.83;;;24.10;;
21769;SDS011;11046;49.558;8.674;2022-12-18T02:34:41;71.23;;;22.87;;
21769;SDS011;11046;49.558;8.674;2022-12-18T02:37:47;66.90;;;22.57;;
21769;SDS011;11046;49.558;8.674;2022-12-18T02:40:48;93.07;;;30.87;;
21769;SDS011;11046;49.558;8.674;2022-12-18T02:43:57;115.87;;;37.37;;
21769;SDS011;11046;49.558;8.674;2022-12-18T02:47:03;105.07;;;32.23;;
21769;SDS011;11046;49.558;8.674;2022-12-18T02:53:24;102.70;;;33.90;;
21769;SDS011;11046;49.558;8.674;2022-12-18T02:56:34;92.90;;;32.83;;
21769;SDS011;11046;49.558;8.674;2022-12-18T03:00:06;94.47;;;30.83;;
21769;SDS011;11046;49.558;8.674;2022-12-18T03:03:13;98.60;;;32.23;;
21769;SDS011;11046;49.558;8.674;2022-12-18T03:06:32;102.97;;;33.77;;
21769;SDS011;11046;49.558;8.674;2022-12-18T03:09:41;94.00;;;32.60;;
21769;SDS011;11046;49.558;8.674;2022-12-18T03:12:50;88.53;;;31.33;;
21769;SDS011;11046;49.558;8.674;2022-12-18T03:15:55;90.43;;;29.17;;
21769;SDS011;11046;49.558;8.674;2022-12-18T03:19:05;83.47;;;30.13;;
21769;SDS011;11046;49.558;8.674;2022-12-18T03:22:11;83.73;;;31.57;;
21769;SDS011;11046;49.558;8.674;2022-12-18T03:25:18;89.03;;;30.53;;
21769;SDS011;11046;49.558;8.674;2022-12-18T03:28:21;90.27;;;29.90;;
21769;SDS011;11046;49.558;8.674;2022-12-18T03:31:28;92.70;;;31.37;;
21769;SDS011;11046;49.558;8.674;2022-12-18T03:34:32;92.43;;;31.23;;
21769;SDS011;11046;49.558;8.674;2022-12-18T03:37:39;97.90;;;30.23;;
21769;SDS011;11046;49.558;8.674;2022-12-18T03:40:53;83.97;;;29.07;;
21769;SDS011;11046;49.558;8.674;2022-12-18T03:45:01;70.47;;;26.20;;
21769;SDS011;11046;49.558;8.674;2022-12-18T03:48:13;75.27;;;26.63;;
21769;SDS011;11046;49.558;8.674;2022-12-18T03:51:27;81.20;;;26.87;;
21769;SDS011;11046;49.558;8.674;2022-12-18T03:54:36;79.03;;;28.90;;
21769;SDS011;11046;49.558;8.674;2022-12-18T03:57:47;81.20;;;30.07;;
21769;SDS011;11046;49.558;8.674;2022-12-18T04:00:49;86.67;;;28.47;;
21769;SDS011;11046;49.558;8.674;2022-12-18T04:03:54;75.17;;;26.23;;
21769;SDS011;11046;49.558;8.674;2022-12-18T04:06:56;85.77;;;27.13;;
21769;SDS011;11046;49.558;8.674;2022-12-18T04:09:58;77.60;;;25.87;;
21769;SDS011;11046;49.558;8.674;2022-12-18T04:13:04;85.97;;;25.77;;
21769;SDS011;11046;49.558;8.674;2022-12-18T04:16:05;75.90;;;23.47;;
21769;SDS011;11046;49.558;8.674;2022-12-18T04:19:06;72.13;;;24.03;;
21769;SDS011;11046;49.558;8.674;2022-12-18T04:22:12;65.73;;;21.73;;
21769;SDS011;11046;49.558;8.674;2022-12-18T04:25:17;75.97;;;20.63;;
21769;SDS011;11046;49.558;8.674;2022-12-18T04:28:29;73.00;;;21.27;;
21769;SDS011;11046;49.558;8.674;2022-12-18T04:31:30;75.00;;;21.47;;
21769;SDS011;11046;49.558;8.674;2022-12-18T04:34:30;67.47;;;22.17;;
21769;SDS011;11046;49.558;8.674;2022-12-18T04:37:32;74.77;;;22.27;;
21769;SDS011;11046;49.558;8.674;2022-12-18T04:40:33;75.17;;;24.27;;
21769;SDS011;11046;49.558;8.674;2022-12-18T04:43:38;72.87;;;23.20;;
21769;SDS011;11046;49.558;8.674;2022-12-18T04:46:39;73.57;;;22.67;;
21769;SDS011;11046;49.558;8.674;2022-12-18T04:49:39;75.70;;;23.30;;
21769;SDS011;11046;49.558;8.674;2022-12-18T04:52:40;71.30;;;22.17;;
21769;SDS011;11046;49.558;8.674;2022-12-18T04:55:40;59.47;;;19.93;;
21769;SDS011;11046;49.558;8.674;2022-12-18T04:58:41;62.47;;;21.53;;
21769;SDS011;11046;49.558;8.674;2022-12-18T05:01:44;60.57;;;21.23;;
21769;SDS011;11046;49.558;8.674;2022-12-18T05:04:45;62.43;;;21.60;;
21769;SDS011;11046;49.558;8.674;2022-12-18T05:07:46;68.83;;;21.43;;
21769;SDS011;11046;49.558;8.674;2022-12-18T05:10:46;65.93;;;21.57;;
21769;SDS011;11046;49.558;8.674;2022-12-18T05:13:47;62.70;;;20.67;;
21769;SDS011;11046;49.558;8.674;2022-12-18T05:16:48;72.87;;;22.40;;
21769;SDS011;11046;49.558;8.674;2022-12-18T05:19:48;64.23;;;20.77;;
21769;SDS011;11046;49.558;8.674;2022-12-18T05:22:49;64.90;;;21.17;;
21769;SDS011;11046;49.558;8.674;2022-12-18T05:25:54;74.63;;;23.70;;
21769;SDS011;11046;49.558;8.674;2022-12-18T05:28:57;64.17;;;21.80;;
21769;SDS011;11046;49.558;8.674;2022-12-18T05:31:57;75.90;;;21.97;;
21769;SDS011;11046;49.558;8.674;2022-12-18T05:34:58;72.20;;;22.90;;
21769;SDS011;11046;49.558;8.674;2022-12-18T05:37:59;72.47;;;21.73;;
21769;SDS011;11046;49.558;8.674;2022-12-18T05:40:59;78.03;;;23.87;;
21769;SDS011;11046;49.558;8.674;2022-12-18T05:44:00;65.43;;;18.53;;
21769;SDS011;11046;49.558;8.674;2022-12-18T05:47:00;64.57;;;20.73;;
21769;SDS011;11046;49.558;8.674;2022-12-18T05:50:01;64.10;;;19.90;;
21769;SDS011;11046;49.558;8.674;2022-12-18T05:53:02;65.67;;;20.57;;
21769;SDS011;11046;49.558;8.674;2022-12-18T05:56:04;60.13;;;20.70;;
21769;SDS011;11046;49.558;8.674;2022-12-18T05:59:07;75.77;;;22.77;;
21769;SDS011;11046;49.558;8.674;2022-12-18T06:02:07;63.30;;;21.47;;
21769;SDS011;11046;49.558;8.674;2022-12-18T06:05:08;64.07;;;21.93;;
21769;SDS011;11046;49.558;8.674;2022-12-18T06:08:09;75.83;;;21.93;;
21769;SDS011;11046;49.558;8.674;2022-12-18T06:11:10;65.00;;;20.70;;
21769;SDS011;11046;49.558;8.674;2022-12-18T06:14:11;64.83;;;20.30;;
21769;SDS011;11046;49.558;8.674;2022-12-18T06:17:11;74.30;;;22.67;;
21769;SDS011;11046;49.558;8.674;2022-12-18T06:20:12;67.53;;;21.13;;
21769;SDS011;11046;49.558;8.674;2022-12-18T06:23:12;74.23;;;21.77;;
21769;SDS011;11046;49.558;8.674;2022-12-18T06:26:14;64.20;;;21.30;;
21769;SDS011;11046;49.558;8.674;2022-12-18T06:29:14;72.77;;;21.97;;
21769;SDS011;11046;49.558;8.674;2022-12-18T06:32:15;74.03;;;21.70;;
21769;SDS011;11046;49.558;8.674;2022-12-18T06:35:16;85.53;;;23.17;;
21769;SDS011;11046;49.558;8.674;2022-12-18T06:38:16;78.27;;;22.03;;
21769;SDS011;11046;49.558;8.674;2022-12-18T06:41:18;73.67;;;21.63;;
21769;SDS011;11046;49.558;8.674;2022-12-18T06:44:20;71.60;;;22.10;;
21769;SDS011;11046;49.558;8.674;2022-12-18T06:47:21;81.07;;;21.70;;
21769;SDS011;11046;49.558;8.674;2022-12-18T06:50:21;77.87;;;22.47;;
21769;SDS011;11046;49.558;8.674;2022-12-18T06:53:22;77.30;;;22.93;;
21769;SDS011;11046;49.558;8.674;2022-12-18T06:56:23;87.50;;;21.27;;
21769;SDS011;11046;49.558;8.674;2022-12-18T06:59:23;77.77;;;24.10;;
21769;SDS011;11046;49.558;8.674;2022-12-18T07:02:24;79.60;;;21.17;;
21769;SDS011;11046;49.558;8.674;2022-12-18T07:05:24;80.23;;;21.90;;
21769;SDS011;11046;49.558;8.674;2022-12-18T07:08:25;85.93;;;22.60;;
21769;SDS011;11046;49.558;8.674;2022-12-18T07:11:26;92.33;;;24.30;;
21769;SDS011;11046;49.558;8.674;2022-12-18T07:14:26;80.93;;;24.17;;
21769;SDS011;11046;49.558;8.674;2022-12-18T07:17:27;82.13;;;24.27;;
21769;SDS011;11046;49.558;8.674;2022-12-18T07:20:28;87.90;;;22.77;;
21769;SDS011;11046;49.558;8.674;2022-12-18T07:23:28;107.47;;;25.63;;
21769;SDS011;11046;49.558;8.674;2022-12-18T07:26:29;84.47;;;23.57;;
21769;SDS011;11046;49.558;8.674;2022-12-18T07:29:30;72.63;;;24.30;;
21769;SDS011;11046;49.558;8.674;2022-12-18T07:32:31;85.40;;;22.93;;
21769;SDS011;11046;49.558;8.674;2022-12-18T07:35:32;76.90;;;21.97;;
21769;SDS011;11046;49.558;8.674;2022-12-18T07:38:33;80.20;;;23.83;;
21769;SDS011;11046;49.558;8.674;2022-12-18T07:41:34;72.97;;;23.27;;
21769;SDS011;11046;49.558;8.674;2022-12-18T07:44:42;79.43;;;22.83;;
21769;SDS011;11046;49.558;8.674;2022-12-18T07:47:43;83.17;;;25.13;;
21769;SDS011;11046;49.558;8.674;2022-12-18T07:50:43;76.57;;;24.70;;
21769;SDS011;11046;49.558;8.674;2022-12-18T07:53:44;80.77;;;24.90;;
21769;SDS011;11046;49.558;8.674;2022-12-18T07:56:45;90.07;;;23.23;;
21769;SDS011;11046;49.558;8.674;2022-12-18T07:59:45;79.97;;;26.20;;
21769;SDS011;11046;49.558;8.674;2022-12-18T08:02:46;81.00;;;24.27;;
21769;SDS011;11046;49.558;8.674;2022-12-18T08:05:46;85.80;;;26.87;;
21769;SDS011;11046;49.558;8.674;2022-12-18T08:08:51;87.03;;;25.63;;
21769;SDS011;11046;49.558;8.674;2022-12-18T08:11:52;79.37;;;26.63;;
21769;SDS011;11046;49.558;8.674;2022-12-18T08:14:53;83.10;;;23.47;;
21769;SDS011;11046;49.558;8.674;2022-12-18T08:17:56;80.67;;;25.60;;
21769;SDS011;11046;49.558;8.674;2022-12-18T08:20:57;79.73;;;24.63;;
21769;SDS011;11046;49.558;8.674;2022-12-18T08:23:58;78.00;;;24.67;;
21769;SDS011;11046;49.558;8.674;2022-12-18T08:27:00;80.17;;;25.13;;
21769;SDS011;11046;49.558;8.674;2022-12-18T08:30:01;76.20;;;23.90;;
21769;SDS011;11046;49.558;8.674;2022-12-18T08:33:03;84.73;;;25.70;;
21769;SDS011;11046;49.558;8.674;2022-12-18T08:36:03;97.23;;;28.13;;
21769;SDS011;11046;49.558;8.674;2022-12-18T08:39:05;88.60;;;27.03;;
21769;SDS011;11046;49.558;8.674;2022-12-18T08:42:05;92.00;;;26.93;;
21769;SDS011;11046;49.558;8.674;2022-12-18T08:45:24;93.73;;;29.00;;
21769;SDS011;11046;49.558;8.674;2022-12-18T08:48:26;81.23;;;26.20;;
21769;SDS011;11046;49.558;8.674;2022-12-18T08:51:26;86.50;;;25.67;;
21769;SDS011;11046;49.558;8.674;2022-12-18T08:54:27;89.20;;;26.43;;
21769;SDS011;11046;49.558;8.674;2022-12-18T08:57:28;100.27;;;28.70;;
21769;SDS011;11046;49.558;8.674;2022-12-18T09:00:28;89.53;;;28.53;;
21769;SDS011;11046;49.558;8.674;2022-12-18T09:03:29;97.33;;;30.57;;
21769;SDS011;11046;49.558;8.674;2022-12-18T09:06:30;100.83;;;30.60;;
21769;SDS011;11046;49.558;8.674;2022-12-18T09:09:31;100.30;;;33.57;;
21769;SDS011;11046;49.558;8.674;2022-12-18T09:12:31;100.27;;;33.17;;
21769;SDS011;11046;49.558;8.674;2022-12-18T09:15:32;96.37;;;32.80;;
21769;SDS011;11046;49.558;8.674;2022-12-18T09:18:32;121.97;;;36.37;;
21769;SDS011;11046;49.558;8.674;2022-12-18T09:21:34;104.97;;;34.07;;
21769;SDS011;11046;49.558;8.674;2022-12-18T09:24:35;96.00;;;32.30;;
21769;SDS011;11046;49.558;8.674;2022-12-18T09:27:35;98.67;;;33.67;;
21769;SDS011;11046;49.558;8.674;2022-12-18T09:30:37;99.97;;;34.60;;
21769;SDS011;11046;49.558;8.674;2022-12-18T09:33:42;95.80;;;34.47;;
21769;SDS011;11046;49.558;8.674;2022-12-18T09:36:42;113.43;;;36.43;;
21769;SDS011;11046;49.558;8.674;2022-12-18T09:39:43;104.43;;;36.97;;
21769;SDS011;11046;49.558;8.674;2022-12-18T09:42:54;105.33;;;38.37;;
21769;SDS011;11046;49.558;8.674;2022-12-18T09:46:01;104.97;;;39.63;;
21769;SDS011;11046;49.558;8.674;2022-12-18T09:49:07;95.50;;;39.83;;
21769;SDS011;11046;49.558;8.674;2022-12-18T09:52:18;101.70;;;38.00;;
21769;SDS011;11046;49.558;8.674;2022-12-18T09:55:31;101.47;;;37.00;;
21769;SDS011;11046;49.558;8.674;2022-12-18T09:58:36;95.07;;;34.07;;
21769;SDS011;11046;49.558;8.674;2022-12-18T10:01:41;93.93;;;35.23;;
21769;SDS011;11046;49.558;8.674;2022-12-18T10:04:42;98.70;;;35.27;;
21769;SDS011;11046;49.558;8.674;2022-12-18T10:07:52;95.83;;;35.47;;
21769;SDS011;11046;49.558;8.674;2022-12-18T10:11:12;90.57;;;34.77;;
21769;SDS011;11046;49.558;8.674;2022-12-18T10:14:34;105.80;;;37.80;;
21769;SDS011;11046;49.558;8.674;2022-12-18T10:21:12;99.77;;;35.10;;
21769;SDS011;11046;49.558;8.674;2022-12-18T10:27:27;90.67;;;33.70;;
21769;SDS011;11046;49.558;8.674;2022-12-18T10:30:29;96.30;;;33.00;;
21769;SDS011;11046;49.558;8.674;2022-12-18T10:33:30;91.40;;;31.67;;
21769;SDS011;11046;49.558;8.674;2022-12-18T10:36:32;93.33;;;30.60;;
21769;SDS011;11046;49.558;8.674;2022-12-18T10:39:33;95.97;;;32.23;;
21769;SDS011;11046;49.558;8.674;2022-12-18T10:42:33;91.33;;;30.00;;
21769;SDS011;11046;49.558;8.674;2022-12-18T10:45:34;87.93;;;29.77;;
21769;SDS011;11046;49.558;8.674;2022-12-18T10:51:48;83.70;;;28.17;;
21769;SDS011;11046;49.558;8.674;2022-12-18T10:54:56;86.93;;;29.23;;
21769;SDS011;11046;49.558;8.674;2022-12-18T10:58:13;89.27;;;29.10;;
21769;SDS011;11046;49.558;8.674;2022-12-18T11:01:19;95.43;;;31.80;;
21769;SDS011;11046;49.558;8.674;2022-12-18T11:04:21;85.17;;;31.07;;
21769;SDS011;11046;49.558;8.674;2022-12-18T11:07:23;93.63;;;33.93;;
21769;SDS011;11046;49.558;8.674;2022-12-18T11:10:28;89.70;;;31.47;;
21769;SDS011;11046;49.558;8.674;2022-12-18T11:13:32;88.53;;;30.13;;
21769;SDS011;11046;49.558;8.674;2022-12-18T11:16:34;94.23;;;29.47;;
21769;SDS011;11046;49.558;8.674;2022-12-18T11:19:51;84.83;;;30.23;;
21769;SDS011;11046;49.558;8.674;2022-12-18T11:22:54;83.07;;;27.80;;
21769;SDS011;11046;49.558;8.674;2022-12-18T11:26:02;88.13;;;28.40;;
21769;SDS011;11046;49.558;8.674;2022-12-18T11:29:09;83.60;;;31.00;;
21769;SDS011;11046;49.558;8.674;2022-12-18T11:38:39;84.37;;;29.87;;
21769;SDS011;11046;49.558;8.674;2022-12-18T11:41:45;89.10;;;30.33;;
21769;SDS011;11046;49.558;8.674;2022-12-18T11:48:34;93.67;;;32.83;;
21769;SDS011;11046;49.558;8.674;2022-12-18T11:51:43;93.93;;;31.73;;
21769;SDS011;11046;49.558;8.674;2022-12-18T11:54:53;93.13;;;30.40;;
21769;SDS011;11046;49.558;8.674;2022-12-18T11:58:03;82.80;;;28.67;;
21769;SDS011;11046;49.558;8.674;2022-12-18T12:01:29;84.50;;;29.03;;
21769;SDS011;11046;49.558;8.674;2022-12-18T12:08:10;93.93;;;31.20;;
21769;SDS011;11046;49.558;8.674;2022-12-18T12:18:08;105.77;;;34.03;;
21769;SDS011;11046;49.558;8.674;2022-12-18T12:35:44;87.93;;;30.77;;
21769;SDS011;11046;49.558;8.674;2022-12-18T12:38:59;85.47;;;28.93;;
21769;SDS011;11046;49.558;8.674;2022-12-18T12:42:05;86.93;;;31.97;;
21769;SDS011;11046;49.558;8.674;2022-12-18T12:45:55;88.40;;;29.70;;
21769;SDS011;11046;49.558;8.674;2022-12-18T12:49:03;98.47;;;32.90;;
21769;SDS011;11046;49.558;8.674;2022-12-18T12:52:32;102.10;;;34.10;;
21769;SDS011;11046;49.558;8.674;2022-12-18T12:55:34;98.60;;;34.07;;
21769;SDS011;11046;49.558;8.674;2022-12-18T12:58:41;97.53;;;33.20;;
21769;SDS011;11046;49.558;8.674;2022-12-18T13:05:30;97.70;;;35.77;;
21769;SDS011;11046;49.558;8.674;2022-12-18T13:08:56;96.43;;;34.00;;
21769;SDS011;11046;49.558;8.674;2022-12-18T13:12:02;101.40;;;35.80;;
21769;SDS011;11046;49.558;8.674;2022-12-18T13:15:30;96.43;;;35.60;;
21769;SDS011;11046;49.558;8.674;2022-12-18T13:18:34;116.57;;;40.70;;
21769;SDS011;11046;49.558;8.674;2022-12-18T13:21:35;117.83;;;41.33;;
21769;SDS011;11046;49.558;8.674;2022-12-18T13:24:36;97.33;;;35.33;;
21769;SDS011;11046;49.558;8.674;2022-12-18T13:30:41;102.60;;;36.37;;
21769;SDS011;11046;49.558;8.674;2022-12-18T13:33:46;101.77;;;37.37;;
21769;SDS011;11046;49.558;8.674;2022-12-18T13:36:47;108.47;;;39.60;;
21769;SDS011;11046;49.558;8.674;2022-12-18T13:39:48;106.00;;;39.07;;
21769;SDS011;11046;49.558;8.674;2022-12-18T13:42:49;114.13;;;39.80;;
21769;SDS011;11046;49.558;8.674;2022-12-18T13:46:18;116.27;;;37.83;;
21769;SDS011;11046;49.558;8.674;2022-12-18T13:49:58;105.73;;;36.63;;
21769;SDS011;11046;49.558;8.674;2022-12-18T13:52:59;102.03;;;36.27;;
21769;SDS011;11046;49.558;8.674;2022-12-18T13:56:00;97.50;;;35.20;;
21769;SDS011;11046;49.558;8.674;2022-12-18T14:02:20;102.47;;;37.67;;
21769;SDS011;11046;49.558;8.674;2022-12-18T14:08:33;96.50;;;34.87;;
21769;SDS011;11046;49.558;8.674;2022-12-18T14:11:38;95.57;;;35.60;;
21769;SDS011;11046;49.558;8.674;2022-12-18T14:14:40;97.23;;;36.53;;
21769;SDS011;11046;49.558;8.674;2022-12-18T14:17:47;98.40;;;35.93;;
21769;SDS011;11046;49.558;8.674;2022-12-18T14:20:50;102.00;;;35.57;;
21769;SDS011;11046;49.558;8.674;2022-12-18T14:27:23;108.80;;;38.43;;
21769;SDS011;11046;49.558;8.674;2022-12-18T14:30:29;110.40;;;38.73;;
21769;SDS011;11046;49.558;8.674;2022-12-18T14:33:32;107.33;;;35.93;;
21769;SDS011;11046;49.558;8.674;2022-12-18T14:36:32;102.93;;;36.63;;
21769;SDS011;11046;49.558;8.674;2022-12-18T14:39:33;93.37;;;34.30;;
21769;SDS011;11046;49.558;8.674;2022-12-18T14:42:33;98.27;;;36.13;;
21769;SDS011;11046;49.558;8.674;2022-12-18T14:45:38;91.73;;;34.57;;
21769;SDS011;11046;49.558;8.674;2022-12-18T14:48:41;100.03;;;35.80;;
21769;SDS011;11046;49.558;8.674;2022-12-18T14:51:47;91.43;;;35.23;;
21769;SDS011;11046;49.558;8.674;2022-12-18T14:55:15;91.93;;;33.20;;
21769;SDS011;11046;49.558;8.674;2022-12-18T14:58:21;92.77;;;34.50;;
21769;SDS011;11046;49.558;8.674;2022-12-18T15:01:27;97.87;;;36.03;;
21769;SDS011;11046;49.558;8.674;2022-12-18T15:04:39;98.60;;;35.17;;
21769;SDS011;11046;49.558;8.674;2022-12-18T15:07:49;97.37;;;36.93;;
21769;SDS011;11046;49.558;8.674;2022-12-18T15:10:52;101.93;;;36.70;;
21769;SDS011;11046;49.558;8.674;2022-12-18T15:13:53;97.77;;;36.27;;
21769;SDS011;11046;49.558;8.674;2022-12-18T15:16:54;104.97;;;38.07;;
21769;SDS011;11046;49.558;8.674;2022-12-18T15:20:00;105.67;;;38.00;;
21769;SDS011;11046;49.558;8.674;2022-12-18T15:23:03;103.30;;;37.07;;
21769;SDS011;11046;49.558;8.674;2022-12-18T15:26:05;101.40;;;37.70;;
21769;SDS011;11046;49.558;8.674;2022-12-18T15:29:19;105.67;;;38.57;;
21769;SDS011;11046;49.558;8.674;2022-12-18T15:32:22;99.70;;;39.43;;
21769;SDS011;11046;49.558;8.674;2022-12-18T15:35:25;108.00;;;38.53;;
21769;SDS011;11046;49.558;8.674;2022-12-18T15:38:27;102.90;;;39.90;;
21769;SDS011;11046;49.558;8.674;2022-12-18T15:41:28;106.33;;;40.20;;
21769;SDS011;11046;49.558;8.674;2022-12-18T15:44:32;118.97;;;43.13;;
21769;SDS011;11046;49.558;8.674;2022-12-18T15:47:33;115.87;;;41.77;;
21769;SDS011;11046;49.558;8.674;2022-12-18T15:50:34;108.07;;;40.73;;
21769;SDS011;11046;49.558;8.674;2022-12-18T15:53:34;112.47;;;40.73;;
21769;SDS011;11046;49.558;8.674;2022-12-18T15:56:35;108.13;;;39.40;;
21769;SDS011;11046;49.558;8.674;2022-12-18T15:59:55;113.80;;;40.30;;
21769;SDS011;11046;49.558;8.674;2022-12-18T16:02:58;111.50;;;41.07;;
21769;SDS011;11046;49.558;8.674;2022-12-18T16:05:59;106.83;;;40.53;;
21769;SDS011;11046;49.558;8.674;2022-12-18T16:09:02;114.53;;;40.50;;
21769;SDS011;11046;49.558;8.674;2022-12-18T16:12:05;130.03;;;45.50;;
21769;SDS011;11046;49.558;8.674;2022-12-18T16:15:14;123.10;;;45.33;;
21769;SDS011;11046;49.558;8.674;2022-12-18T16:18:16;138.30;;;50.20;;
21769;SDS011;11046;49.558;8.674;2022-12-18T16:21:17;159.33;;;57.50;;
21769;SDS011;11046;49.558;8.674;2022-12-18T16:24:20;167.80;;;61.80;;
21769;SDS011;11046;49.558;8.674;2022-12-18T16:27:23;169.50;;;59.90;;
21769;SDS011;11046;49.558;8.674;2022-12-18T16:30:26;156.43;;;56.70;;
21769;SDS011;11046;49.558;8.674;2022-12-18T16:33:29;164.30;;;58.90;;
21769;SDS011;11046;49.558;8.674;2022-12-18T16:36:29;182.10;;;66.07;;
21769;SDS011;11046;49.558;8.674;2022-12-18T16:39:31;191.40;;;67.20;;
21769;SDS011;11046;49.558;8.674;2022-12-18T16:42:38;169.43;;;60.90;;
21769;SDS011;11046;49.558;8.674;2022-12-18T16:45:40;165.83;;;60.93;;
21769;SDS011;11046;49.558;8.674;2022-12-18T16:48:41;154.87;;;56.07;;
21769;SDS011;11046;49.558;8.674;2022-12-18T16:51:42;163.50;;;56.63;;
21769;SDS011;11046;49.558;8.674;2022-12-18T16:54:44;153.03;;;55.43;;
21769;SDS011;11046;49.558;8.674;2022-12-18T16:57:45;158.53;;;58.50;;
21769;SDS011;11046;49.558;8.674;2022-12-18T17:00:46;165.53;;;60.07;;
21769;SDS011;11046;49.558;8.674;2022-12-18T17:03:52;175.73;;;61.67;;
21769;SDS011;11046;49.558;8.674;2022-12-18T17:06:55;171.07;;;65.83;;
21769;SDS011;11046;49.558;8.674;2022-12-18T17:09:57;179.90;;;68.77;;
21769;SDS011;11046;49.558;8.674;2022-12-18T17:12:57;178.20;;;70.13;;
21769;SDS011;11046;49.558;8.674;2022-12-18T17:16:03;191.37;;;67.93;;
21769;SDS011;11046;49.558;8.674;2022-12-18T17:19:10;185.27;;;67.47;;
21769;SDS011;11046;49.558;8.674;2022-12-18T17:22:12;185.37;;;69.57;;
21769;SDS011;11046;49.558;8.674;2022-12-18T17:25:13;182.03;;;66.80;;
21769;SDS011;11046;49.558;8.674;2022-12-18T17:28:15;176.40;;;66.43;;
21769;SDS011;11046;49.558;8.674;2022-12-18T17:31:17;185.87;;;68.53;;
21769;SDS011;11046;49.558;8.674;2022-12-18T17:34:21;182.87;;;69.83;;
21769;SDS011;11046;49.558;8.674;2022-12-18T17:37:22;183.33;;;69.23;;
21769;SDS011;11046;49.558;8.674;2022-12-18T17:40:25;174.73;;;65.00;;
21769;SDS011;11046;49.558;8.674;2022-12-18T17:43:26;167.43;;;60.43;;
21769;SDS011;11046;49.558;8.674;2022-12-18T17:46:27;170.90;;;66.43;;
21769;SDS011;11046;49.558;8.674;2022-12-18T17:49:30;140.57;;;53.47;;
21769;SDS011;11046;49.558;8.674;2022-12-18T17:52:31;125.90;;;48.17;;
21769;SDS011;11046;49.558;8.674;2022-12-18T17:55:32;129.47;;;48.03;;
21769;SDS011;11046;49.558;8.674;2022-12-18T17:58:37;118.93;;;43.97;;
21769;SDS011;11046;49.558;8.674;2022-12-18T18:01:39;111.67;;;42.87;;
21769;SDS011;11046;49.558;8.674;2022-12-18T18:04:40;118.73;;;43.37;;
21769;SDS011;11046;49.558;8.674;2022-12-18T18:07:41;114.17;;;41.33;;
21769;SDS011;11046;49.558;8.674;2022-12-18T18:10:43;123.00;;;44.63;;
21769;SDS011;11046;49.558;8.674;2022-12-18T18:13:48;117.97;;;44.87;;
21769;SDS011;11046;49.558;8.674;2022-12-18T18:17:01;131.20;;;44.83;;
21769;SDS011;11046;49.558;8.674;2022-12-18T18:20:04;125.80;;;48.03;;
21769;SDS011;11046;49.558;8.674;2022-12-18T18:23:06;138.20;;;47.67;;
21769;SDS011;11046;49.558;8.674;2022-12-18T18:26:07;137.93;;;51.40;;
21769;SDS011;11046;49.558;8.674;2022-12-18T18:29:11;135.47;;;50.10;;
21769;SDS011;11046;49.558;8.674;2022-12-18T18:32:16;153.57;;;54.20;;
21769;SDS011;11046;49.558;8.674;2022-12-18T18:35:17;137.37;;;52.80;;
21769;SDS011;11046;49.558;8.674;2022-12-18T18:38:18;140.50;;;50.67;;
21769;SDS011;11046;49.558;8.674;2022-12-18T18:41:20;136.53;;;50.67;;
21769;SDS011;11046;49.558;8.674;2022-12-18T18:44:23;138.70;;;51.63;;
21769;SDS011;11046;49.558;8.674;2022-12-18T18:47:27;142.43;;;53.23;;
21769;SDS011;11046;49.558;8.674;2022-12-18T18:50:29;141.10;;;50.47;;
21769;SDS011;11046;49.558;8.674;2022-12-18T18:53:30;134.30;;;52.77;;
21769;SDS011;11046;49.558;8.674;2022-12-18T18:56:36;137.03;;;52.53;;
21769;SDS011;11046;49.558;8.674;2022-12-18T18:59:37;143.33;;;51.93;;
21769;SDS011;11046;49.558;8.674;2022-12-18T19:02:39;144.63;;;53.93;;
21769;SDS011;11046;49.558;8.674;2022-12-18T19:05:39;152.80;;;54.97;;